createdAt,value
2018-05-31T00:00:13.639Z,0
2018-05-31T00:00:54.197Z,0
2018-05-31T00:01:34.767Z,0
2018-05-31T00:02:15.347Z,0
2018-05-31T00:02:55.902Z,0
2018-05-31T00:03:36.494Z,0
2018-05-31T00:04:17.085Z,0
2018-05-31T00:04:57.650Z,0
2018-05-31T00:05:38.210Z,0
2018-05-31T00:06:18.815Z,0
2018-05-31T00:06:59.358Z,0
2018-05-31T00:07:39.908Z,0
2018-05-31T00:08:20.481Z,0
2018-05-31T00:09:01.039Z,0
2018-05-31T00:09:41.609Z,0
2018-05-31T00:10:22.178Z,0
2018-05-31T00:11:05.567Z,0
2018-05-31T00:11:46.128Z,0
2018-05-31T00:12:26.708Z,0
2018-05-31T00:13:07.254Z,0
2018-05-31T00:13:47.826Z,0
2018-05-31T00:14:28.401Z,0
2018-05-31T00:15:08.957Z,0
2018-05-31T00:15:49.532Z,0
2018-05-31T00:16:30.111Z,0
2018-05-31T00:17:10.684Z,0
2018-05-31T00:17:51.259Z,0
2018-05-31T00:18:31.816Z,0
2018-05-31T00:19:12.373Z,0
2018-05-31T00:19:52.921Z,0
2018-05-31T00:20:33.501Z,0
2018-05-31T00:21:14.090Z,0
2018-05-31T00:21:54.641Z,0
2018-05-31T00:22:35.201Z,0
2018-05-31T00:23:15.753Z,0
2018-05-31T00:23:56.423Z,0
2018-05-31T00:24:36.997Z,0
2018-05-31T00:25:17.563Z,0
2018-05-31T00:25:58.120Z,0
2018-05-31T00:26:38.686Z,0
2018-05-31T00:27:19.268Z,0
2018-05-31T00:27:59.828Z,0
2018-05-31T00:28:40.404Z,0
2018-05-31T00:29:20.970Z,0
2018-05-31T00:30:01.538Z,0
2018-05-31T00:30:42.105Z,0
2018-05-31T00:31:22.700Z,0
2018-05-31T00:32:03.273Z,0
2018-05-31T00:32:43.838Z,0
2018-05-31T00:33:24.396Z,0
2018-05-31T00:34:04.951Z,0
2018-05-31T00:34:45.507Z,0
2018-05-31T00:35:26.068Z,0
2018-05-31T00:36:06.698Z,0
2018-05-31T00:36:47.260Z,0
2018-05-31T00:37:27.816Z,0
2018-05-31T00:38:08.365Z,0
2018-05-31T00:38:48.917Z,0
2018-05-31T00:39:29.474Z,0
2018-05-31T00:40:10.041Z,0
2018-05-31T00:40:50.607Z,0
2018-05-31T00:41:31.191Z,0
2018-05-31T00:42:11.758Z,0
2018-05-31T00:42:52.323Z,0
2018-05-31T00:43:32.869Z,0
2018-05-31T00:44:13.419Z,0
2018-05-31T00:44:53.964Z,0
2018-05-31T00:45:34.524Z,0
2018-05-31T00:46:15.087Z,0
2018-05-31T00:46:55.711Z,0
2018-05-31T00:47:36.299Z,0
2018-05-31T00:48:16.835Z,0
2018-05-31T00:48:57.391Z,0
2018-05-31T00:49:37.963Z,0
2018-05-31T00:50:18.538Z,0
2018-05-31T00:50:59.100Z,0
2018-05-31T00:51:39.695Z,0
2018-05-31T00:52:20.226Z,0
2018-05-31T00:53:00.787Z,0
2018-05-31T00:53:41.382Z,0
2018-05-31T00:54:21.955Z,0
2018-05-31T00:55:02.538Z,0
2018-05-31T00:55:43.098Z,0
2018-05-31T00:56:23.653Z,0
2018-05-31T00:57:04.247Z,0
2018-05-31T00:57:44.792Z,0
2018-05-31T00:58:25.363Z,0
2018-05-31T00:59:05.930Z,0
2018-05-31T00:59:46.490Z,0
2018-05-31T01:00:27.049Z,0
2018-05-31T01:01:07.597Z,0
2018-05-31T01:01:48.179Z,0
2018-05-31T01:02:28.708Z,0
2018-05-31T01:03:09.266Z,0
2018-05-31T01:03:49.843Z,0
2018-05-31T01:04:30.401Z,0
2018-05-31T01:05:10.969Z,0
2018-05-31T01:05:51.534Z,0
2018-05-31T01:06:32.103Z,0
2018-05-31T01:07:12.643Z,0
2018-05-31T01:07:53.194Z,0
2018-05-31T01:08:33.759Z,0
2018-05-31T01:09:14.324Z,0
2018-05-31T01:09:54.893Z,0
2018-05-31T01:10:35.455Z,0
2018-05-31T01:11:16.002Z,0
2018-05-31T01:11:56.591Z,0
2018-05-31T01:12:37.127Z,0
2018-05-31T01:13:17.700Z,0
2018-05-31T01:13:58.252Z,0
2018-05-31T01:14:38.813Z,0
2018-05-31T01:15:19.359Z,0
2018-05-31T01:15:59.919Z,0
2018-05-31T01:16:40.453Z,0
2018-05-31T01:17:21.003Z,0
2018-05-31T01:18:01.575Z,0
2018-05-31T01:18:42.146Z,0
2018-05-31T01:19:22.745Z,0
2018-05-31T01:20:03.308Z,0
2018-05-31T01:20:43.876Z,0
2018-05-31T01:21:24.464Z,0
2018-05-31T01:22:05.029Z,0
2018-05-31T01:22:45.588Z,0
2018-05-31T01:23:26.150Z,0
2018-05-31T01:24:06.696Z,0
2018-05-31T01:24:47.278Z,0
2018-05-31T01:25:27.833Z,0
2018-05-31T01:26:08.393Z,0
2018-05-31T01:26:48.954Z,0
2018-05-31T01:27:29.516Z,0
2018-05-31T01:28:10.104Z,0
2018-05-31T01:28:50.672Z,0
2018-05-31T01:29:31.240Z,0
2018-05-31T01:30:11.805Z,0
2018-05-31T01:30:52.368Z,0
2018-05-31T01:31:32.948Z,0
2018-05-31T01:32:13.505Z,0
2018-05-31T01:32:54.108Z,0
2018-05-31T01:33:34.669Z,0
2018-05-31T01:34:15.231Z,0
2018-05-31T01:34:55.776Z,0
2018-05-31T01:35:36.350Z,0
2018-05-31T01:36:16.921Z,0
2018-05-31T01:36:57.494Z,0
2018-05-31T01:37:38.069Z,0
2018-05-31T01:38:18.638Z,0
2018-05-31T01:38:59.218Z,0
2018-05-31T01:39:39.790Z,0
2018-05-31T01:40:20.357Z,0
2018-05-31T01:41:00.916Z,0
2018-05-31T01:41:41.474Z,0
2018-05-31T01:42:22.024Z,0
2018-05-31T01:43:02.583Z,0
2018-05-31T01:43:43.151Z,0
2018-05-31T01:44:23.699Z,0
2018-05-31T01:45:04.275Z,0
2018-05-31T01:45:44.819Z,0
2018-05-31T01:46:25.392Z,0
2018-05-31T01:47:05.950Z,0
2018-05-31T01:47:46.525Z,0
2018-05-31T01:48:27.098Z,0
2018-05-31T01:49:07.652Z,0
2018-05-31T01:49:48.215Z,0
2018-05-31T01:50:28.786Z,0
2018-05-31T01:51:09.345Z,0
2018-05-31T01:51:49.907Z,0
2018-05-31T01:52:30.468Z,0
2018-05-31T01:53:11.045Z,0
2018-05-31T01:53:51.635Z,0
2018-05-31T01:54:32.205Z,0
2018-05-31T01:55:12.778Z,0
2018-05-31T01:55:53.360Z,0
2018-05-31T01:56:33.905Z,0
2018-05-31T01:57:14.473Z,0
2018-05-31T01:57:55.055Z,0
2018-05-31T01:58:35.613Z,0
2018-05-31T01:59:16.171Z,0
2018-05-31T01:59:56.756Z,0
2018-05-31T02:00:37.316Z,0
2018-05-31T02:01:17.873Z,0
2018-05-31T02:01:58.441Z,0
2018-05-31T02:02:39.007Z,0
2018-05-31T02:03:19.575Z,0
2018-05-31T02:04:00.137Z,0
2018-05-31T02:04:40.714Z,0
2018-05-31T02:05:21.245Z,0
2018-05-31T02:06:01.847Z,0
2018-05-31T02:06:42.408Z,0
2018-05-31T02:07:22.982Z,0
2018-05-31T02:08:03.556Z,0
2018-05-31T02:08:44.148Z,0
2018-05-31T02:09:24.706Z,0
2018-05-31T02:10:05.273Z,0
2018-05-31T02:10:45.826Z,0
2018-05-31T02:11:26.401Z,0
2018-05-31T02:12:06.959Z,0
2018-05-31T02:12:47.527Z,0
2018-05-31T02:13:28.101Z,0
2018-05-31T02:14:08.659Z,0
2018-05-31T02:14:49.216Z,0
2018-05-31T02:15:29.794Z,0
2018-05-31T02:16:10.352Z,0
2018-05-31T02:16:50.900Z,0
2018-05-31T02:17:31.467Z,0
2018-05-31T02:18:12.023Z,0
2018-05-31T02:18:52.605Z,0
2018-05-31T02:19:33.153Z,0
2018-05-31T02:20:13.722Z,0
2018-05-31T02:20:54.290Z,0
2018-05-31T02:21:34.862Z,0
2018-05-31T02:22:15.431Z,0
2018-05-31T02:22:55.999Z,0
2018-05-31T02:23:36.604Z,0
2018-05-31T02:24:17.146Z,0
2018-05-31T02:24:57.694Z,0
2018-05-31T02:25:38.261Z,0
2018-05-31T02:26:18.841Z,0
2018-05-31T02:26:59.427Z,0
2018-05-31T02:27:39.981Z,0
2018-05-31T02:28:20.559Z,0
2018-05-31T02:29:01.126Z,0
2018-05-31T02:29:41.669Z,0
2018-05-31T02:30:22.230Z,0
2018-05-31T02:31:02.781Z,0
2018-05-31T02:31:43.360Z,0
2018-05-31T02:32:23.931Z,0
2018-05-31T02:33:04.484Z,0
2018-05-31T02:33:45.048Z,0
2018-05-31T02:34:25.596Z,0
2018-05-31T02:35:06.160Z,0
2018-05-31T02:35:46.727Z,0
2018-05-31T02:36:27.287Z,0
2018-05-31T02:37:07.862Z,0
2018-05-31T02:37:48.426Z,0
2018-05-31T02:38:29.026Z,0
2018-05-31T02:39:09.627Z,0
2018-05-31T02:39:50.148Z,0
2018-05-31T02:40:30.728Z,0
2018-05-31T02:41:11.287Z,0
2018-05-31T02:41:51.876Z,0
2018-05-31T02:42:32.440Z,0
2018-05-31T02:43:13.009Z,0
2018-05-31T02:43:53.583Z,0
2018-05-31T02:44:34.164Z,0
2018-05-31T02:45:14.740Z,0
2018-05-31T02:45:55.296Z,0
2018-05-31T02:46:35.858Z,0
2018-05-31T02:47:16.437Z,0
2018-05-31T02:47:56.995Z,0
2018-05-31T02:48:37.544Z,0
2018-05-31T02:49:18.116Z,0
2018-05-31T02:49:58.689Z,0
2018-05-31T02:50:39.254Z,0
2018-05-31T02:51:19.801Z,0
2018-05-31T02:52:00.387Z,0
2018-05-31T02:52:40.960Z,0
2018-05-31T02:53:21.535Z,0
2018-05-31T02:54:02.114Z,0
2018-05-31T02:54:42.669Z,0
2018-05-31T02:55:23.224Z,0
2018-05-31T02:56:03.778Z,0
2018-05-31T02:56:44.348Z,0
2018-05-31T02:57:24.915Z,0
2018-05-31T02:58:05.484Z,0
2018-05-31T02:58:46.063Z,0
2018-05-31T02:59:26.635Z,0
2018-05-31T03:00:07.210Z,5
2018-05-31T03:00:47.787Z,5
2018-05-31T03:01:28.345Z,5
2018-05-31T03:02:08.928Z,5
2018-05-31T03:02:49.491Z,5
2018-05-31T03:03:30.077Z,5
2018-05-31T03:04:10.653Z,5
2018-05-31T03:04:51.227Z,5
2018-05-31T03:05:31.786Z,5
2018-05-31T03:06:12.354Z,5
2018-05-31T03:06:52.934Z,5
2018-05-31T03:07:33.490Z,5
2018-05-31T03:08:14.054Z,5
2018-05-31T03:08:54.620Z,5
2018-05-31T03:09:35.187Z,5
2018-05-31T03:10:15.757Z,5
2018-05-31T03:10:56.334Z,5
2018-05-31T03:11:36.895Z,5
2018-05-31T03:12:17.440Z,5
2018-05-31T03:12:58.005Z,5
2018-05-31T03:13:38.561Z,10
2018-05-31T03:14:19.110Z,10
2018-05-31T03:14:59.661Z,10
2018-05-31T03:15:40.235Z,10
2018-05-31T03:16:20.815Z,10
2018-05-31T03:17:01.359Z,10
2018-05-31T03:17:41.919Z,10
2018-05-31T03:18:22.478Z,10
2018-05-31T03:19:03.059Z,10
2018-05-31T03:19:43.610Z,10
2018-05-31T03:20:24.176Z,10
2018-05-31T03:21:04.731Z,10
2018-05-31T03:21:45.291Z,10
2018-05-31T03:22:25.887Z,10
2018-05-31T03:23:06.413Z,10
2018-05-31T03:23:46.959Z,10
2018-05-31T03:24:27.517Z,15
2018-05-31T03:25:08.071Z,15
2018-05-31T03:25:48.620Z,15
2018-05-31T03:26:29.172Z,15
2018-05-31T03:27:09.731Z,15
2018-05-31T03:27:50.274Z,15
2018-05-31T03:28:30.848Z,15
2018-05-31T03:29:11.406Z,15
2018-05-31T03:29:51.995Z,15
2018-05-31T03:30:32.566Z,15
2018-05-31T03:31:13.085Z,20
2018-05-31T03:31:53.656Z,20
2018-05-31T03:32:34.227Z,20
2018-05-31T03:33:14.790Z,20
2018-05-31T03:33:55.330Z,20
2018-05-31T03:34:35.882Z,20
2018-05-31T03:35:16.435Z,20
2018-05-31T03:35:56.973Z,20
2018-05-31T03:36:37.548Z,20
2018-05-31T03:37:18.109Z,25
2018-05-31T03:37:58.652Z,25
2018-05-31T03:38:39.217Z,25
2018-05-31T03:39:19.779Z,25
2018-05-31T03:40:00.333Z,25
2018-05-31T03:40:40.923Z,25
2018-05-31T03:41:21.455Z,25
2018-05-31T03:42:02.017Z,25
2018-05-31T03:42:42.594Z,25
2018-05-31T03:43:23.143Z,25
2018-05-31T03:44:03.681Z,30
2018-05-31T03:44:44.216Z,30
2018-05-31T03:45:24.791Z,30
2018-05-31T03:46:05.346Z,30
2018-05-31T03:46:45.901Z,30
2018-05-31T03:47:26.492Z,30
2018-05-31T03:48:07.029Z,30
2018-05-31T03:48:47.573Z,30
2018-05-31T03:49:28.135Z,30
2018-05-31T03:50:08.731Z,30
2018-05-31T03:50:49.301Z,30
2018-05-31T03:51:29.858Z,35
2018-05-31T03:52:10.387Z,35
2018-05-31T03:52:50.937Z,35
2018-05-31T03:53:31.565Z,35
2018-05-31T03:54:12.202Z,35
2018-05-31T03:54:52.811Z,35
2018-05-31T03:55:33.472Z,35
2018-05-31T03:56:14.022Z,35
2018-05-31T03:56:54.583Z,35
2018-05-31T03:57:35.139Z,35
2018-05-31T03:58:15.677Z,35
2018-05-31T03:58:56.236Z,35
2018-05-31T03:59:36.813Z,40
2018-05-31T04:00:17.378Z,40
2018-05-31T04:00:57.929Z,40
2018-05-31T04:01:38.489Z,40
2018-05-31T04:02:19.048Z,40
2018-05-31T04:02:59.603Z,40
2018-05-31T04:03:40.196Z,40
2018-05-31T04:04:20.745Z,40
2018-05-31T04:05:01.308Z,40
2018-05-31T04:05:41.860Z,40
2018-05-31T04:06:22.423Z,45
2018-05-31T04:07:02.982Z,45
2018-05-31T04:07:43.562Z,45
2018-05-31T04:08:24.132Z,45
2018-05-31T04:09:04.700Z,45
2018-05-31T04:09:45.244Z,45
2018-05-31T04:10:25.839Z,45
2018-05-31T04:11:06.454Z,50
2018-05-31T04:11:47.028Z,50
2018-05-31T04:12:27.589Z,50
2018-05-31T04:13:08.300Z,50
2018-05-31T04:13:48.744Z,50
2018-05-31T04:14:29.277Z,50
2018-05-31T04:15:09.843Z,50
2018-05-31T04:15:50.401Z,50
2018-05-31T04:16:30.957Z,50
2018-05-31T04:17:11.525Z,55
2018-05-31T04:17:52.083Z,55
2018-05-31T04:18:32.664Z,55
2018-05-31T04:19:13.231Z,55
2018-05-31T04:19:53.794Z,55
2018-05-31T04:20:34.482Z,55
2018-05-31T04:21:15.045Z,55
2018-05-31T04:21:55.595Z,55
2018-05-31T04:22:36.203Z,55
2018-05-31T04:23:16.780Z,60
2018-05-31T04:23:57.328Z,60
2018-05-31T04:24:37.882Z,60
2018-05-31T04:25:18.448Z,60
2018-05-31T04:25:58.996Z,60
2018-05-31T04:26:39.546Z,60
2018-05-31T04:27:20.101Z,60
2018-05-31T04:28:00.667Z,60
2018-05-31T04:28:41.242Z,65
2018-05-31T04:29:21.790Z,65
2018-05-31T04:30:02.327Z,65
2018-05-31T04:30:42.934Z,65
2018-05-31T04:31:23.484Z,65
2018-05-31T04:32:04.044Z,65
2018-05-31T04:32:44.625Z,65
2018-05-31T04:33:25.222Z,65
2018-05-31T04:34:05.792Z,70
2018-05-31T04:34:46.357Z,70
2018-05-31T04:35:26.915Z,70
2018-05-31T04:36:07.459Z,70
2018-05-31T04:36:48.044Z,75
2018-05-31T04:37:28.538Z,75
2018-05-31T04:38:09.119Z,75
2018-05-31T04:38:49.646Z,75
2018-05-31T04:39:30.187Z,80
2018-05-31T04:40:10.788Z,80
2018-05-31T04:40:51.369Z,80
2018-05-31T04:41:31.953Z,80
2018-05-31T04:42:12.499Z,85
2018-05-31T04:42:53.058Z,85
2018-05-31T04:43:33.607Z,85
2018-05-31T04:44:14.158Z,85
2018-05-31T04:44:54.738Z,85
2018-05-31T04:45:35.520Z,85
2018-05-31T04:46:16.045Z,90
2018-05-31T04:46:56.834Z,90
2018-05-31T04:47:37.486Z,90
2018-05-31T04:48:18.033Z,90
2018-05-31T04:48:58.628Z,90
2018-05-31T04:49:39.216Z,90
2018-05-31T04:50:19.788Z,90
2018-05-31T04:51:00.360Z,95
2018-05-31T04:51:40.920Z,95
2018-05-31T04:52:21.475Z,95
2018-05-31T04:53:02.043Z,95
2018-05-31T04:53:42.658Z,95
2018-05-31T04:54:23.180Z,95
2018-05-31T04:55:03.724Z,100
2018-05-31T04:55:44.285Z,100
2018-05-31T04:56:24.854Z,100
2018-05-31T04:57:05.408Z,100
2018-05-31T04:57:45.949Z,100
2018-05-31T04:58:26.522Z,100
2018-05-31T04:59:07.087Z,105
2018-05-31T04:59:47.629Z,105
2018-05-31T05:00:28.173Z,105
2018-05-31T05:01:08.727Z,105
2018-05-31T05:01:49.303Z,105
2018-05-31T05:02:29.875Z,105
2018-05-31T05:03:10.432Z,105
2018-05-31T05:03:51.016Z,105
2018-05-31T05:04:31.607Z,105
2018-05-31T05:05:12.166Z,105
2018-05-31T05:05:52.778Z,110
2018-05-31T05:06:33.303Z,110
2018-05-31T05:07:13.882Z,110
2018-05-31T05:07:54.459Z,110
2018-05-31T05:08:35.066Z,115
2018-05-31T05:09:15.656Z,115
2018-05-31T05:09:56.193Z,115
2018-05-31T05:10:36.803Z,115
2018-05-31T05:11:17.361Z,120
2018-05-31T05:11:57.951Z,120
2018-05-31T05:12:38.514Z,120
2018-05-31T05:13:19.097Z,125
2018-05-31T05:13:59.627Z,125
2018-05-31T05:14:40.207Z,125
2018-05-31T05:15:20.738Z,130
2018-05-31T05:16:01.341Z,130
2018-05-31T05:16:41.923Z,130
2018-05-31T05:17:22.513Z,135
2018-05-31T05:18:03.056Z,135
2018-05-31T05:18:43.640Z,135
2018-05-31T05:19:24.222Z,140
2018-05-31T05:20:04.781Z,140
2018-05-31T05:20:45.322Z,140
2018-05-31T05:21:25.900Z,145
2018-05-31T05:22:06.481Z,145
2018-05-31T05:22:47.053Z,150
2018-05-31T05:23:27.610Z,150
2018-05-31T05:24:08.170Z,155
2018-05-31T05:24:48.728Z,155
2018-05-31T05:25:29.270Z,230
2018-05-31T05:26:09.836Z,520
2018-05-31T05:26:50.392Z,865
2018-05-31T05:27:30.934Z,1085
2018-05-31T05:28:11.478Z,1100
2018-05-31T05:28:52.025Z,1120
2018-05-31T05:29:32.605Z,1150
2018-05-31T05:30:13.166Z,1150
2018-05-31T05:30:53.712Z,1180
2018-05-31T05:31:34.335Z,1220
2018-05-31T05:32:14.922Z,1245
2018-05-31T05:32:55.509Z,1245
2018-05-31T05:33:36.104Z,1215
2018-05-31T05:34:16.680Z,1265
2018-05-31T05:34:57.226Z,1290
2018-05-31T05:35:37.919Z,1260
2018-05-31T05:36:18.489Z,1215
2018-05-31T05:36:59.051Z,1185
2018-05-31T05:37:39.606Z,1175
2018-05-31T05:38:20.139Z,1200
2018-05-31T05:39:00.716Z,1210
2018-05-31T05:39:41.282Z,1170
2018-05-31T05:40:21.922Z,1165
2018-05-31T05:41:02.494Z,1235
2018-05-31T05:41:43.060Z,1275
2018-05-31T05:42:23.631Z,1320
2018-05-31T05:43:04.194Z,1345
2018-05-31T05:43:44.779Z,1340
2018-05-31T05:44:25.338Z,1335
2018-05-31T05:45:05.941Z,1325
2018-05-31T05:45:46.513Z,1315
2018-05-31T05:46:27.075Z,1300
2018-05-31T05:47:07.668Z,1340
2018-05-31T05:47:48.243Z,1375
2018-05-31T05:48:28.894Z,1325
2018-05-31T05:49:09.483Z,1350
2018-05-31T05:49:50.036Z,1355
2018-05-31T05:50:30.597Z,1385
2018-05-31T05:51:11.152Z,1410
2018-05-31T05:51:51.724Z,1395
2018-05-31T05:52:32.257Z,1355
2018-05-31T05:53:12.811Z,1380
2018-05-31T05:53:53.415Z,1420
2018-05-31T05:54:33.980Z,1405
2018-05-31T05:55:14.522Z,1400
2018-05-31T05:55:55.114Z,1395
2018-05-31T05:56:35.680Z,1395
2018-05-31T05:57:16.250Z,1370
2018-05-31T05:57:56.820Z,1395
2018-05-31T05:58:37.394Z,1420
2018-05-31T05:59:17.978Z,1425
2018-05-31T05:59:58.612Z,1445
2018-05-31T06:00:39.194Z,1470
2018-05-31T06:01:19.815Z,1460
2018-05-31T06:02:00.365Z,1435
2018-05-31T06:02:40.940Z,1395
2018-05-31T06:03:21.522Z,1395
2018-05-31T06:04:02.236Z,1445
2018-05-31T06:04:42.773Z,1435
2018-05-31T06:05:23.335Z,1405
2018-05-31T06:06:03.912Z,1425
2018-05-31T06:06:44.486Z,1475
2018-05-31T06:07:25.050Z,1485
2018-05-31T06:08:05.609Z,1490
2018-05-31T06:08:46.203Z,1505
2018-05-31T06:09:26.770Z,1505
2018-05-31T06:10:07.393Z,1490
2018-05-31T06:10:47.907Z,1485
2018-05-31T06:11:28.488Z,1490
2018-05-31T06:12:09.062Z,1535
2018-05-31T06:12:49.620Z,1535
2018-05-31T06:13:30.188Z,1380
2018-05-31T06:14:10.753Z,1315
2018-05-31T06:14:51.307Z,1420
2018-05-31T06:15:31.871Z,1560
2018-05-31T06:16:12.426Z,1575
2018-05-31T06:16:52.994Z,1470
2018-05-31T06:17:33.568Z,1475
2018-05-31T06:18:14.171Z,1525
2018-05-31T06:18:54.744Z,1560
2018-05-31T06:19:35.315Z,1575
2018-05-31T06:20:15.871Z,1565
2018-05-31T06:20:56.454Z,1560
2018-05-31T06:21:37.022Z,1580
2018-05-31T06:22:17.601Z,1620
2018-05-31T06:22:58.172Z,1565
2018-05-31T06:23:38.740Z,1515
2018-05-31T06:24:19.375Z,1495
2018-05-31T06:24:59.930Z,1500
2018-05-31T06:25:40.555Z,1525
2018-05-31T06:26:21.182Z,1560
2018-05-31T06:27:01.730Z,1660
2018-05-31T06:27:42.308Z,1620
2018-05-31T06:28:22.883Z,1530
2018-05-31T06:29:03.464Z,1525
2018-05-31T06:29:44.308Z,1615
2018-05-31T06:30:25.128Z,1620
2018-05-31T06:31:05.659Z,1605
2018-05-31T06:31:46.229Z,1590
2018-05-31T06:32:26.832Z,1550
2018-05-31T06:33:07.411Z,1575
2018-05-31T06:33:47.981Z,1605
2018-05-31T06:34:28.627Z,1645
2018-05-31T06:35:09.206Z,1630
2018-05-31T06:35:49.778Z,1615
2018-05-31T06:36:30.367Z,1645
2018-05-31T06:37:10.986Z,1640
2018-05-31T06:37:51.524Z,1625
2018-05-31T06:38:32.129Z,1665
2018-05-31T06:39:12.723Z,1675
2018-05-31T06:39:53.368Z,1680
2018-05-31T06:40:33.974Z,1700
2018-05-31T06:41:14.550Z,1655
2018-05-31T06:41:55.191Z,1680
2018-05-31T06:42:36.910Z,1650
2018-05-31T06:43:17.559Z,1585
2018-05-31T06:43:58.143Z,1535
2018-05-31T06:44:38.730Z,1530
2018-05-31T06:45:19.523Z,1580
2018-05-31T06:46:00.138Z,1590
2018-05-31T06:46:40.698Z,1625
2018-05-31T06:47:21.323Z,1625
2018-05-31T06:48:01.902Z,1605
2018-05-31T06:48:42.472Z,1610
2018-05-31T06:49:23.070Z,1640
2018-05-31T06:50:03.665Z,1640
2018-05-31T06:50:44.301Z,1665
2018-05-31T06:51:24.902Z,1675
2018-05-31T06:52:05.476Z,1645
2018-05-31T06:52:46.060Z,1595
2018-05-31T06:53:26.664Z,1620
2018-05-31T06:54:07.308Z,1695
2018-05-31T06:54:47.871Z,1680
2018-05-31T06:55:28.487Z,1635
2018-05-31T06:56:09.074Z,1575
2018-05-31T06:56:49.648Z,1615
2018-05-31T06:57:30.229Z,1625
2018-05-31T06:58:10.804Z,1640
2018-05-31T06:58:51.353Z,1675
2018-05-31T06:59:31.953Z,1635
2018-05-31T07:00:12.492Z,1635
2018-05-31T07:00:53.111Z,1620
2018-05-31T07:01:33.721Z,1600
2018-05-31T07:02:14.322Z,1555
2018-05-31T07:02:54.900Z,1535
2018-05-31T07:03:35.484Z,1475
2018-05-31T07:04:16.747Z,1375
2018-05-31T07:04:57.349Z,1320
2018-05-31T07:05:37.921Z,1240
2018-05-31T07:06:18.487Z,1145
2018-05-31T07:06:59.117Z,1085
2018-05-31T07:07:39.655Z,1020
2018-05-31T07:08:20.360Z,960
2018-05-31T07:09:00.905Z,900
2018-05-31T07:09:41.511Z,855
2018-05-31T07:10:22.110Z,820
2018-05-31T07:11:02.720Z,785
2018-05-31T07:11:43.304Z,745
2018-05-31T07:12:23.921Z,720
2018-05-31T07:13:04.497Z,690
2018-05-31T07:13:45.085Z,660
2018-05-31T07:14:25.671Z,635
2018-05-31T07:15:06.251Z,615
2018-05-31T07:15:46.810Z,600
2018-05-31T07:16:27.384Z,600
2018-05-31T07:17:08.125Z,590
2018-05-31T07:17:48.703Z,580
2018-05-31T07:18:29.319Z,575
2018-05-31T07:19:09.933Z,570
2018-05-31T07:19:50.647Z,570
2018-05-31T07:20:31.258Z,560
2018-05-31T07:21:11.870Z,560
2018-05-31T07:21:52.447Z,560
2018-05-31T07:22:33.015Z,560
2018-05-31T07:23:13.594Z,560
2018-05-31T07:23:54.289Z,555
2018-05-31T07:24:35.205Z,555
2018-05-31T07:25:15.780Z,550
2018-05-31T07:25:56.452Z,550
2018-05-31T07:26:37.052Z,555
2018-05-31T07:27:17.699Z,550
2018-05-31T07:27:58.219Z,545
2018-05-31T07:28:38.798Z,540
2018-05-31T07:29:19.391Z,540
2018-05-31T07:29:59.958Z,535
2018-05-31T07:30:40.597Z,530
2018-05-31T07:31:21.188Z,535
2018-05-31T07:32:01.774Z,535
2018-05-31T07:32:42.342Z,535
2018-05-31T07:33:22.922Z,535
2018-05-31T07:34:03.482Z,530
2018-05-31T07:34:44.091Z,530
2018-05-31T07:35:24.700Z,520
2018-05-31T07:36:05.284Z,520
2018-05-31T07:36:45.853Z,515
2018-05-31T07:37:26.433Z,510
2018-05-31T07:38:07.059Z,510
2018-05-31T07:38:47.683Z,505
2018-05-31T07:39:28.188Z,505
2018-05-31T07:40:08.748Z,500
2018-05-31T07:40:49.320Z,505
2018-05-31T07:41:29.888Z,505
2018-05-31T07:42:10.494Z,505
2018-05-31T07:42:51.058Z,505
2018-05-31T07:43:31.632Z,510
2018-05-31T07:44:12.221Z,505
2018-05-31T07:44:52.783Z,505
2018-05-31T07:45:33.351Z,500
2018-05-31T07:46:13.916Z,505
2018-05-31T07:46:54.469Z,515
2018-05-31T07:47:35.048Z,510
2018-05-31T07:48:15.622Z,510
2018-05-31T07:48:56.193Z,505
2018-05-31T07:49:36.802Z,510
2018-05-31T07:50:17.400Z,505
2018-05-31T07:50:57.957Z,500
2018-05-31T07:51:38.519Z,500
2018-05-31T07:52:19.097Z,495
2018-05-31T07:52:59.664Z,495
2018-05-31T07:53:40.232Z,485
2018-05-31T07:54:20.821Z,480
2018-05-31T07:55:01.498Z,480
2018-05-31T07:55:42.058Z,470
2018-05-31T07:56:22.634Z,465
2018-05-31T07:57:03.197Z,435
2018-05-31T07:57:43.772Z,415
2018-05-31T07:58:24.421Z,385
2018-05-31T07:59:04.948Z,380
2018-05-31T07:59:45.509Z,375
2018-05-31T08:00:26.084Z,370
2018-05-31T08:01:06.641Z,370
2018-05-31T08:01:47.247Z,365
2018-05-31T08:02:27.839Z,360
2018-05-31T08:03:08.419Z,360
2018-05-31T08:03:49.002Z,360
2018-05-31T08:04:29.557Z,355
2018-05-31T08:05:10.121Z,350
2018-05-31T08:05:50.685Z,350
2018-05-31T08:06:31.252Z,345
2018-05-31T08:07:11.843Z,345
2018-05-31T08:07:52.466Z,345
2018-05-31T08:08:33.059Z,340
2018-05-31T08:09:13.646Z,340
2018-05-31T08:09:54.218Z,340
2018-05-31T08:10:34.805Z,340
2018-05-31T08:11:15.441Z,335
2018-05-31T08:11:55.975Z,330
2018-05-31T08:12:36.543Z,330
2018-05-31T08:13:17.166Z,325
2018-05-31T08:13:57.742Z,320
2018-05-31T08:14:38.329Z,320
2018-05-31T08:15:19.019Z,320
2018-05-31T08:15:59.610Z,310
2018-05-31T08:16:40.182Z,310
2018-05-31T08:19:13.531Z,300
2018-05-31T08:19:54.222Z,295
2018-05-31T08:20:34.789Z,290
2018-05-31T08:21:15.309Z,290
2018-05-31T08:21:55.876Z,285
2018-05-31T08:22:36.461Z,285
2018-05-31T08:23:17.030Z,280
2018-05-31T08:23:57.580Z,280
2018-05-31T08:24:38.143Z,275
2018-05-31T08:25:18.749Z,275
2018-05-31T08:25:59.324Z,270
2018-05-31T08:26:39.887Z,270
2018-05-31T08:27:20.448Z,265
2018-05-31T08:28:01.349Z,265
2018-05-31T08:28:41.890Z,260
2018-05-31T08:29:22.490Z,260
2018-05-31T08:30:03.114Z,260
2018-05-31T08:30:43.711Z,260
2018-05-31T08:31:24.362Z,255
2018-05-31T08:32:04.897Z,255
2018-05-31T08:32:45.457Z,250
2018-05-31T08:33:26.046Z,250
2018-05-31T08:34:06.667Z,250
2018-05-31T08:34:47.209Z,245
2018-05-31T08:35:27.791Z,245
2018-05-31T08:36:08.326Z,240
2018-05-31T08:36:48.939Z,240
2018-05-31T08:37:29.505Z,240
2018-05-31T08:38:10.959Z,235
2018-05-31T08:38:51.559Z,235
2018-05-31T08:39:32.737Z,235
2018-05-31T08:40:13.710Z,230
2018-05-31T08:40:54.696Z,230
2018-05-31T08:41:35.473Z,225
2018-05-31T08:42:16.166Z,225
2018-05-31T08:42:56.787Z,220
2018-05-31T08:43:37.332Z,220
2018-05-31T08:44:17.924Z,220
2018-05-31T08:44:58.483Z,220
2018-05-31T08:45:39.041Z,215
2018-05-31T08:46:19.622Z,215
2018-05-31T08:47:00.185Z,215
2018-05-31T08:47:40.760Z,215
2018-05-31T08:48:21.316Z,215
2018-05-31T08:49:01.913Z,210
2018-05-31T08:49:42.553Z,210
2018-05-31T08:50:23.302Z,210
2018-05-31T08:51:03.880Z,210
2018-05-31T08:51:44.478Z,205
2018-05-31T08:52:25.177Z,205
2018-05-31T08:53:05.737Z,205
2018-05-31T08:53:46.293Z,205
2018-05-31T08:54:26.845Z,200
2018-05-31T08:55:07.464Z,200
2018-05-31T08:55:48.006Z,200
2018-05-31T08:56:28.581Z,205
2018-05-31T08:57:09.145Z,200
2018-05-31T08:57:49.689Z,200
2018-05-31T08:58:30.261Z,200
2018-05-31T08:59:10.927Z,205
2018-05-31T08:59:51.519Z,195
2018-05-31T09:00:32.295Z,200
2018-05-31T09:01:12.961Z,195
2018-05-31T09:01:53.505Z,195
2018-05-31T09:02:34.077Z,195
2018-05-31T09:03:14.684Z,190
2018-05-31T09:03:55.215Z,190
2018-05-31T09:04:35.766Z,190
2018-05-31T09:05:16.310Z,190
2018-05-31T09:05:56.874Z,190
2018-05-31T09:06:37.457Z,190
2018-05-31T09:07:18.037Z,185
2018-05-31T09:07:58.664Z,185
2018-05-31T09:08:39.238Z,185
2018-05-31T09:09:19.834Z,185
2018-05-31T09:10:00.424Z,185
2018-05-31T09:10:41.030Z,180
2018-05-31T09:11:21.638Z,180
2018-05-31T09:12:02.276Z,180
2018-05-31T09:12:42.903Z,175
2018-05-31T09:13:23.449Z,175
2018-05-31T09:14:04.030Z,175
2018-05-31T09:14:44.617Z,175
2018-05-31T09:15:25.192Z,175
2018-05-31T09:16:05.735Z,175
2018-05-31T09:16:46.323Z,170
2018-05-31T09:17:26.895Z,170
2018-05-31T09:18:07.487Z,170
2018-05-31T09:18:48.069Z,170
2018-05-31T09:19:28.577Z,170
2018-05-31T09:20:09.153Z,165
2018-05-31T09:20:49.706Z,165
2018-05-31T09:21:30.273Z,165
2018-05-31T09:22:10.915Z,165
2018-05-31T09:22:51.465Z,165
2018-05-31T09:23:32.020Z,165
2018-05-31T09:24:12.589Z,165
2018-05-31T09:24:53.161Z,165
2018-05-31T09:25:33.729Z,165
2018-05-31T09:26:14.272Z,165
2018-05-31T09:26:54.842Z,165
2018-05-31T09:27:35.410Z,165
2018-05-31T09:28:15.981Z,160
2018-05-31T09:28:56.582Z,160
2018-05-31T09:29:37.161Z,160
2018-05-31T09:30:17.710Z,160
2018-05-31T09:30:58.401Z,160
2018-05-31T09:31:38.989Z,160
2018-05-31T09:32:19.539Z,160
2018-05-31T09:33:00.082Z,160
2018-05-31T09:33:40.629Z,160